Time;durP1;ratioP1;P1;durP2;ratioP2;P2;SDS_P1;SDS_P2;PMS_P1;PMS_P2;Temp;Humidity;BMP_temperature;BMP_pressure;BME280_temperature;BME280_humidity;BME280_pressure;Samples;Min_cycle;Max_cycle;Signal;HPM_P1;HPM_P2
2022/06/14 00:03:13;;;;;;;;;;;;;;;;;;5092571;28;1898;-66
2022/06/14 00:05:38;;;;;;;;;;;;;;;;;;5093381;28;868;-66
2022/06/14 00:08:04;;;;;;;;;;;;;;;;;;5093577;28;1024;-66
2022/06/14 00:10:29;;;;;;;;;;;;;;;;;;5092214;28;1018;-66
2022/06/14 00:12:55;;;;;;;;;;;;;;;;;;5091142;28;1415;-66
2022/06/14 00:15:20;;;;;;;;;;;;;;;;;;5092738;28;930;-66
2022/06/14 00:17:45;;;;;;;;;;;;;;;;;;5090920;28;1386;-66
2022/06/14 00:20:11;;;;;;;;;;;;;;;;;;5091433;28;864;-66
2022/06/14 00:22:37;;;;;;;;;;;;;;;;;;5074100;28;1973;-66
2022/06/14 00:25:03;;;;;;;;;;;;;;;;;;5091378;28;1162;-66
2022/06/14 00:27:28;;;;;;;;;;;;;;;;;;5091147;28;1357;-66
2022/06/14 00:29:53;;;;;;;;;;;;;;;;;;5092201;28;1066;-66
2022/06/14 00:32:18;;;;;;;;;;;;;;;;;;5092511;28;1424;-66
2022/06/14 00:34:43;;;;;;;;;;;;;;;;;;5092129;28;935;-66
2022/06/14 00:37:13;;;;;;;;;;;;;;;;;;5091278;28;1218;-66
2022/06/14 00:39:38;;;;;;;;;;;;;;;;;;5092127;28;1002;-66
2022/06/14 00:42:04;;;;;;;;;;;;;;;;;;5091024;28;1934;-66
2022/06/14 00:44:29;;;;;;;;;;;;;;;;;;5091950;28;889;-66
2022/06/14 00:47:09;;;;;;;;;;;;;;;;;;5091846;28;841;-66
2022/06/14 00:49:43;;;;;;;;;;;;;;;;;;5091202;28;1506;-66
2022/06/14 00:52:16;;;;;;;;;;;;;;;;;;5092239;28;986;-66
2022/06/14 00:54:45;;;;;;;;;;;;;;;;;;5091705;28;923;-66
2022/06/14 00:57:22;;;;;;;;;;;;;;;;;;5090421;28;1340;-66
2022/06/14 00:59:57;;;;;;;;;;;;;;;;;;5091587;28;778;-66
2022/06/14 01:02:28;;;;;;;;;;;;;;;;;;5090423;28;1973;-66
2022/06/14 01:04:54;;;;;;;;;;;;;;;;;;5091803;28;884;-66
2022/06/14 01:07:27;;;;;;;;;;;;;;;;;;5091981;28;1022;-66
2022/06/14 01:09:55;;;;;;;;;;;;;;;;;;5091319;28;782;-66
2022/06/14 01:12:22;;;;;;;;;;;;;;;;;;5091825;28;1081;-65
2022/06/14 01:14:57;;;;;;;;;;;;;;;;;;5089499;28;1175;-66
2022/06/14 01:17:22;;;;;;;;;;;;;;;;;;5091199;28;904;-66
2022/06/14 01:19:48;;;;;;;;;;;;;;;;;;5090948;28;987;-66
2022/06/14 01:22:13;;;;;;;;;;;;;;;;;;5089676;28;1980;-66
2022/06/14 01:24:42;;;;;;;;;;;;;;;;;;5091277;28;1027;-66
2022/06/14 01:27:10;;;;;;;;;;;;;;;;;;5090302;28;1367;-66
2022/06/14 01:29:37;;;;;;;;;;;;;;;;;;5091706;28;923;-66
2022/06/14 01:32:05;;;;;;;;;;;;;;;;;;5091667;28;738;-66
2022/06/14 01:34:31;;;;;;;;;;;;;;;;;;5091163;28;1161;-66
2022/06/14 01:36:58;;;;;;;;;;;;;;;;;;5091158;28;848;-66
2022/06/14 01:39:24;;;;;;;;;;;;;;;;;;5091253;28;864;-66
2022/06/14 01:42:05;;;;;;;;;;;;;;;;;;5090805;28;1918;-66
2022/06/14 01:44:34;;;;;;;;;;;;;;;;;;5090664;28;891;-66
2022/06/14 01:47:02;;;;;;;;;;;;;;;;;;5091254;28;915;-66
2022/06/14 01:52:38;;;;;;;;;;;;;;;;;;5091683;28;761;-66
2022/06/14 01:55:03;;;;;;;;;;;;;;;;;;5091693;28;880;-66
2022/06/14 01:57:33;;;;;;;;;;;;;;;;;;5091533;28;873;-66
2022/06/14 02:00:10;;;;;;;;;;;;;;;;;;5091631;28;825;-66
2022/06/14 02:02:35;;;;;;;;;;;;;;;;;;5090049;28;1902;-66
2022/06/14 02:05:03;;;;;;;;;;;;;;;;;;5091321;28;891;-66
2022/06/14 02:07:55;;;;;;;;;;;;;;;;;;5091462;28;1011;-66
2022/06/14 02:10:26;;;;;;;;;;;;;;;;;;5074829;28;1440;-66
2022/06/14 02:12:55;;;;;;;;;;;;;;;;;;5090659;28;995;-66
2022/06/14 02:15:23;;;;;;;;;;;;;;;;;;5089217;28;1214;-66
2022/06/14 02:17:54;;;;;;;;;;;;;;;;;;5088732;28;1222;-66
2022/06/14 02:20:22;;;;;;;;;;;;;;;;;;5090843;28;1069;-66
2022/06/14 02:23:05;;;;;;;;;;;;;;;;;;5088671;28;1984;-66
2022/06/14 02:25:34;;;;;;;;;;;;;;;;;;5090482;28;915;-66
2022/06/14 02:28:06;;;;;;;;;;;;;;;;;;5090222;28;848;-66
2022/06/14 02:30:36;;;;;;;;;;;;;;;;;;5090806;28;929;-66
2022/06/14 02:33:01;;;;;;;;;;;;;;;;;;5090639;28;959;-66
2022/06/14 02:35:32;;;;;;;;;;;;;;;;;;5090690;28;864;-66
2022/06/14 02:38:01;;;;;;;;;;;;;;;;;;5090443;28;777;-66
2022/06/14 02:40:35;;;;;;;;;;;;;;;;;;5090763;28;844;-66
2022/06/14 02:43:04;;;;;;;;;;;;;;;;;;5090278;28;1901;-66
2022/06/14 02:45:32;;;;;;;;;;;;;;;;;;5090288;28;805;-66
2022/06/14 02:48:07;;;;;;;;;;;;;;;;;;5090561;28;999;-66
2022/06/14 02:50:34;;;;;;;;;;;;;;;;;;5090382;28;849;-66
2022/06/14 02:53:04;;;;;;;;;;;;;;;;;;5090036;28;999;-66
2022/06/14 02:55:43;;;;;;;;;;;;;;;;;;5090300;28;940;-66
2022/06/14 02:58:11;;;;;;;;;;;;;;;;;;5092126;28;1337;-66
2022/06/14 03:00:42;;;;;;;;;;;;;;;;;;5093036;28;1396;-67
2022/06/14 03:03:14;;;;;;;;;;;;;;;;;;5092843;28;1903;-66
2022/06/14 03:05:43;;;;;;;;;;;;;;;;;;5094298;28;908;-66
2022/06/14 03:08:17;;;;;;;;;;;;;;;;;;5094323;28;821;-66
2022/06/14 03:11:01;;;;;;;;;;;;;;;;;;5094141;28;1018;-66
2022/06/14 03:13:27;;;;;;;;;;;;;;;;;;5092686;28;1322;-66
2022/06/14 03:15:55;;;;;;;;;;;;;;;;;;5092296;28;1293;-66
2022/06/14 03:18:34;;;;;;;;;;;;;;;;;;5094283;28;1091;-66
2022/06/14 03:21:32;;;;;;;;;;;;;;;;;;5091941;28;1598;-66
2022/06/14 03:24:13;;;;;;;;;;;;;;;;;;5070239;28;1274;-66
2022/06/14 03:26:38;;;;;;;;;;;;;;;;;;5094077;28;756;-66
2022/06/14 03:29:26;;;;;;;;;;;;;;;;;;5093657;28;773;-66
2022/06/14 03:31:58;;;;;;;;;;;;;;;;;;5093412;28;1227;-66
2022/06/14 03:34:47;;;;;;;;;;;;;;;;;;5094338;28;899;-66
2022/06/14 03:37:13;;;;;;;;;;;;;;;;;;5088785;28;1188;-66
2022/06/14 03:39:44;;;;;;;;;;;;;;;;;;5093477;28;844;-66
2022/06/14 03:42:11;;;;;;;;;;;;;;;;;;5094233;28;1937;-66
2022/06/14 03:44:37;;;;;;;;;;;;;;;;;;5092483;28;1372;-66
2022/06/14 03:47:17;;;;;;;;;;;;;;;;;;5093902;28;915;-66
2022/06/14 03:49:48;;;;;;;;;;;;;;;;;;5093390;28;892;-66
2022/06/14 03:52:16;;;;;;;;;;;;;;;;;;5092501;28;1416;-66
2022/06/14 03:54:55;;;;;;;;;;;;;;;;;;5093259;28;1045;-66
2022/06/14 03:57:24;;;;;;;;;;;;;;;;;;5093467;28;1038;-66
2022/06/14 04:00:08;;;;;;;;;;;;;;;;;;5091357;28;1233;-66
2022/06/14 04:02:55;;;;;;;;;;;;;;;;;;5093330;28;1898;-66
2022/06/14 04:05:32;;;;;;;;;;;;;;;;;;5093458;28;895;-66
2022/06/14 04:08:00;;;;;;;;;;;;;;;;;;5090693;28;1288;-66
2022/06/14 04:10:28;;;;;;;;;;;;;;;;;;5091507;28;1301;-66
2022/06/14 04:13:00;;;;;;;;;;;;;;;;;;5092379;28;766;-66
2022/06/14 04:15:31;;;;;;;;;;;;;;;;;;5093074;28;896;-66
2022/06/14 04:21:18;;;;;;;;;;;;;;;;;;5091837;28;1443;-66
2022/06/14 04:23:54;;;;;;;;;;;;;;;;;;5070390;28;1056;-66
2022/06/14 04:26:24;;;;;;;;;;;;;;;;;;5108544;28;1172;-66
2022/06/14 04:28:55;;;;;;;;;;;;;;;;;;5111022;28;1282;-66
2022/06/14 04:31:23;;;;;;;;;;;;;;;;;;5093312;28;1100;-67
2022/06/14 04:33:49;;;;;;;;;;;;;;;;;;5091746;28;911;-66
2022/06/14 04:36:17;;;;;;;;;;;;;;;;;;5092729;28;1144;-66
2022/06/14 04:38:46;;;;;;;;;;;;;;;;;;5091814;28;1119;-66
2022/06/14 04:41:19;;;;;;;;;;;;;;;;;;5092453;28;872;-66
2022/06/14 04:43:49;;;;;;;;;;;;;;;;;;5092247;28;986;-66
2022/06/14 04:46:28;;;;;;;;;;;;;;;;;;5091876;28;1042;-67
2022/06/14 04:49:02;;;;;;;;;;;;;;;;;;5091811;28;849;-66
2022/06/14 04:51:31;;;;;;;;;;;;;;;;;;5092273;28;821;-66
2022/06/14 04:53:59;;;;;;;;;;;;;;;;;;5093240;28;995;-66
2022/06/14 04:56:29;;;;;;;;;;;;;;;;;;5094907;28;912;-68
2022/06/14 04:59:01;;;;;;;;;;;;;;;;;;5094603;28;1007;-66
2022/06/14 05:01:29;;;;;;;;;;;;;;;;;;5093067;28;1893;-66
2022/06/14 05:04:00;;;;;;;;;;;;;;;;;;5093818;28;908;-66
2022/06/14 05:06:33;;;;;;;;;;;;;;;;;;5095659;28;934;-72
2022/06/14 05:09:01;;;;;;;;;;;;;;;;;;5094984;28;951;-72
2022/06/14 05:11:40;;;;;;;;;;;;;;;;;;5093933;28;1218;-72
2022/06/14 05:14:08;;;;;;;;;;;;;;;;;;5094173;28;1422;-67
2022/06/14 05:16:41;;;;;;;;;;;;;;;;;;5095247;28;844;-66
2022/06/14 05:19:10;;;;;;;;;;;;;;;;;;5093570;28;1156;-66
2022/06/14 05:21:45;;;;;;;;;;;;;;;;;;5094464;28;1902;-66
2022/06/14 05:24:10;;;;;;;;;;;;;;;;;;5091804;28;1272;-67
2022/06/14 05:26:53;;;;;;;;;;;;;;;;;;5092170;28;871;-67
2022/06/14 05:29:19;;;;;;;;;;;;;;;;;;5092044;28;829;-67
2022/06/14 05:32:00;;;;;;;;;;;;;;;;;;5089568;28;1440;-67
2022/06/14 05:34:44;;;;;;;;;;;;;;;;;;5092194;28;896;-68
2022/06/14 05:37:25;;;;;;;;;;;;;;;;;;5091643;28;1047;-68
2022/06/14 05:39:56;;;;;;;;;;;;;;;;;;5090884;28;881;-67
2022/06/14 05:42:25;;;;;;;;;;;;;;;;;;5091096;28;1906;-67
2022/06/14 05:44:53;;;;;;;;;;;;;;;;;;5090826;28;987;-68
2022/06/14 05:47:26;;;;;;;;;;;;;;;;;;5091363;28;936;-68
2022/06/14 05:49:54;;;;;;;;;;;;;;;;;;5090320;28;884;-67
2022/06/14 05:52:19;;;;;;;;;;;;;;;;;;5091503;28;860;-68
2022/06/14 05:54:50;;;;;;;;;;;;;;;;;;5089016;28;1182;-67
2022/06/14 05:57:23;;;;;;;;;;;;;;;;;;5089765;28;1166;-67
2022/06/14 05:59:57;;;;;;;;;;;;;;;;;;5090021;28;836;-67
2022/06/14 06:02:25;;;;;;;;;;;;;;;;;;5090561;28;1902;-68
2022/06/14 06:04:53;;;;;;;;;;;;;;;;;;5090288;28;995;-68
2022/06/14 06:07:22;;;;;;;;;;;;;;;;;;5089406;28;1448;-67
2022/06/14 06:09:53;;;;;;;;;;;;;;;;;;5090131;28;907;-67
2022/06/14 06:12:24;;;;;;;;;;;;;;;;;;5091599;28;998;-67
2022/06/14 06:14:52;;;;;;;;;;;;;;;;;;5090083;28;758;-67
2022/06/14 06:17:22;;;;;;;;;;;;;;;;;;5090785;28;908;-67
2022/06/14 06:19:54;;;;;;;;;;;;;;;;;;5090398;28;920;-67
2022/06/14 06:22:26;;;;;;;;;;;;;;;;;;5090026;28;1989;-68
2022/06/14 06:24:52;;;;;;;;;;;;;;;;;;5090177;28;1029;-68
2022/06/14 06:27:17;;;;;;;;;;;;;;;;;;5089117;28;1477;-66
2022/06/14 06:29:53;;;;;;;;;;;;;;;;;;5090039;28;911;-67
2022/06/14 06:32:19;;;;;;;;;;;;;;;;;;5093577;28;828;-67
2022/06/14 06:34:46;;;;;;;;;;;;;;;;;;5094307;28;1003;-67
2022/06/14 06:37:16;;;;;;;;;;;;;;;;;;5094301;28;833;-68
2022/06/14 06:39:51;;;;;;;;;;;;;;;;;;5094790;28;896;-67
2022/06/14 06:42:25;;;;;;;;;;;;;;;;;;5092538;28;1898;-67
2022/06/14 06:45:03;;;;;;;;;;;;;;;;;;5094003;28;868;-67
2022/06/14 06:47:35;;;;;;;;;;;;;;;;;;5094918;28;856;-67
2022/06/14 06:50:03;;;;;;;;;;;;;;;;;;5094094;28;816;-67
2022/06/14 06:52:43;;;;;;;;;;;;;;;;;;5094541;28;963;-67
2022/06/14 06:55:16;;;;;;;;;;;;;;;;;;5093824;28;1326;-67
2022/06/14 06:57:43;;;;;;;;;;;;;;;;;;5095189;28;979;-67
2022/06/14 07:00:11;;;;;;;;;;;;;;;;;;5093499;28;1187;-67
2022/06/14 07:02:46;;;;;;;;;;;;;;;;;;5094822;28;1913;-67
2022/06/14 07:05:15;;;;;;;;;;;;;;;;;;5095054;28;1066;-67
2022/06/14 07:07:46;;;;;;;;;;;;;;;;;;5093626;28;1572;-66
2022/06/14 07:10:30;;;;;;;;;;;;;;;;;;5092323;28;1606;-66
2022/06/14 07:12:58;;;;;;;;;;;;;;;;;;5083783;28;1515;-68
2022/06/14 07:15:27;;;;;;;;;;;;;;;;;;5087109;28;1611;-66
2022/06/14 07:18:01;;;;;;;;;;;;;;;;;;5085534;28;1643;-67
2022/06/14 07:20:38;;;;;;;;;;;;;;;;;;5096301;28;1612;-67
2022/06/14 07:23:24;;;;;;;;;;;;;;;;;;5090071;28;1914;-67
2022/06/14 07:26:03;;;;;;;;;;;;;;;;;;5071329;28;1070;-67
2022/06/14 07:28:33;;;;;;;;;;;;;;;;;;5094031;28;915;-67
2022/06/14 07:31:04;;;;;;;;;;;;;;;;;;5093238;28;917;-68
2022/06/14 07:33:30;;;;;;;;;;;;;;;;;;5093964;28;813;-67
2022/06/14 07:35:56;;;;;;;;;;;;;;;;;;5092041;28;1188;-67
2022/06/14 07:38:24;;;;;;;;;;;;;;;;;;5093617;28;1057;-67
2022/06/14 07:40:59;;;;;;;;;;;;;;;;;;5093534;28;872;-67
2022/06/14 07:43:47;;;;;;;;;;;;;;;;;;5092942;28;1886;-67
2022/06/14 07:46:22;;;;;;;;;;;;;;;;;;5087891;28;1119;-67
2022/06/14 07:48:59;;;;;;;;;;;;;;;;;;5091841;28;1407;-68
2022/06/14 07:51:28;;;;;;;;;;;;;;;;;;5092365;28;1172;-67
2022/06/14 07:54:10;;;;;;;;;;;;;;;;;;5092478;28;1163;-67
2022/06/14 07:56:50;;;;;;;;;;;;;;;;;;5093858;28;825;-67
2022/06/14 07:59:17;;;;;;;;;;;;;;;;;;5093200;28;995;-67
2022/06/14 08:01:59;;;;;;;;;;;;;;;;;;5091644;28;1973;-67
2022/06/14 08:04:43;;;;;;;;;;;;;;;;;;5091649;28;1370;-67
2022/06/14 08:07:16;;;;;;;;;;;;;;;;;;5091584;28;1167;-67
2022/06/14 08:09:41;;;;;;;;;;;;;;;;;;5093084;28;961;-68
2022/06/14 08:12:11;;;;;;;;;;;;;;;;;;5091362;28;1198;-67
2022/06/14 08:14:42;;;;;;;;;;;;;;;;;;5091991;28;1231;-67
2022/06/14 08:17:08;;;;;;;;;;;;;;;;;;5091540;28;1198;-67
2022/06/14 08:19:42;;;;;;;;;;;;;;;;;;5092208;28;949;-67
2022/06/14 08:22:11;;;;;;;;;;;;;;;;;;5093127;28;1903;-68
2022/06/14 08:24:41;;;;;;;;;;;;;;;;;;5091557;28;1147;-67
2022/06/14 08:27:13;;;;;;;;;;;;;;;;;;5091143;28;1206;-67
2022/06/14 08:29:44;;;;;;;;;;;;;;;;;;5091780;28;1496;-68
2022/06/14 08:32:19;;;;;;;;;;;;;;;;;;5092681;28;837;-68
2022/06/14 08:34:49;;;;;;;;;;;;;;;;;;5091102;28;1291;-67
2022/06/14 08:37:15;;;;;;;;;;;;;;;;;;5093188;28;826;-67
2022/06/14 08:40:03;;;;;;;;;;;;;;;;;;5093132;28;861;-68
2022/06/14 08:42:34;;;;;;;;;;;;;;;;;;5092547;28;1965;-68
2022/06/14 08:45:10;;;;;;;;;;;;;;;;;;5092906;28;880;-68
2022/06/14 08:47:39;;;;;;;;;;;;;;;;;;5091481;28;904;-68
2022/06/14 08:50:20;;;;;;;;;;;;;;;;;;5091094;28;1352;-69
2022/06/14 08:53:04;;;;;;;;;;;;;;;;;;5091091;28;1447;-68
2022/06/14 08:55:41;;;;;;;;;;;;;;;;;;5091997;28;920;-68
2022/06/14 08:58:25;;;;;;;;;;;;;;;;;;5090974;28;1056;-68
2022/06/14 09:01:18;;;;;;;;;;;;;;;;;;5090800;28;1174;-68
2022/06/14 09:03:55;;;;;;;;;;;;;;;;;;5092080;28;1975;-68
2022/06/14 09:06:20;;;;;;;;;;;;;;;;;;5091928;28;911;-68
2022/06/14 09:09:04;;;;;;;;;;;;;;;;;;5090482;28;1219;-68
2022/06/14 09:11:48;;;;;;;;;;;;;;;;;;5091991;28;978;-68
2022/06/14 09:14:16;;;;;;;;;;;;;;;;;;5091696;28;875;-68
2022/06/14 09:16:54;;;;;;;;;;;;;;;;;;5091881;28;908;-68
2022/06/14 09:19:25;;;;;;;;;;;;;;;;;;5092024;28;911;-68
2022/06/14 09:22:08;;;;;;;;;;;;;;;;;;5089990;28;1977;-68
2022/06/14 09:24:52;;;;;;;;;;;;;;;;;;5091849;28;887;-67
2022/06/14 09:27:36;;;;;;;;;;;;;;;;;;5091618;28;824;-66
2022/06/14 09:30:09;;;;;;;;;;;;;;;;;;5091145;28;844;-67
2022/06/14 09:35:44;;;;;;;;;;;;;;;;;;5091476;28;682;-67
2022/06/14 09:38:26;;;;;;;;;;;;;;;;;;5090279;28;1228;-67
2022/06/14 09:40:51;;;;;;;;;;;;;;;;;;5087860;28;1434;-67
2022/06/14 09:43:28;;;;;;;;;;;;;;;;;;5107276;28;1914;-66
2022/06/14 09:46:08;;;;;;;;;;;;;;;;;;5109971;28;1257;-67
2022/06/14 09:48:45;;;;;;;;;;;;;;;;;;5108233;28;996;-67
2022/06/14 09:51:16;;;;;;;;;;;;;;;;;;5093668;28;1167;-67
2022/06/14 09:53:44;;;;;;;;;;;;;;;;;;5111473;28;1108;-66
2022/06/14 09:56:28;;;;;;;;;;;;;;;;;;5111916;28;887;-67
2022/06/14 09:58:53;;;;;;;;;;;;;;;;;;5111341;28;1010;-67
2022/06/14 10:01:31;;;;;;;;;;;;;;;;;;5111443;28;859;-66
2022/06/14 10:04:15;;;;;;;;;;;;;;;;;;5111125;28;960;-67
2022/06/14 10:06:52;;;;;;;;;;;;;;;;;;5109713;28;1507;-67
2022/06/14 10:09:42;;;;;;;;;;;;;;;;;;5112057;28;966;-67
2022/06/14 10:12:10;;;;;;;;;;;;;;;;;;5111985;28;974;-66
2022/06/14 10:14:46;;;;;;;;;;;;;;;;;;5110477;28;1249;-65
2022/06/14 10:17:14;;;;;;;;;;;;;;;;;;5110958;28;1367;-65
2022/06/14 10:19:39;;;;;;;;;;;;;;;;;;5111649;28;777;-65
2022/06/14 10:22:04;;;;;;;;;;;;;;;;;;5110206;28;1987;-65
2022/06/14 10:24:36;;;;;;;;;;;;;;;;;;5110839;28;883;-65
2022/06/14 10:29:44;;;;;;;;;;;;;;;;;;5111423;28;726;-65
2022/06/14 10:32:41;;;;;;;;;;;;;;;;;;5112157;28;946;-65
2022/06/14 10:35:13;;;;;;;;;;;;;;;;;;5102416;28;1801;-65
2022/06/14 10:37:57;;;;;;;;;;;;;;;;;;5085377;28;1169;-65
2022/06/14 10:40:25;;;;;;;;;;;;;;;;;;5087448;28;1261;-65
2022/06/14 10:43:21;;;;;;;;;;;;;;;;;;5109430;28;1966;-65
2022/06/14 10:45:59;;;;;;;;;;;;;;;;;;5055592;28;1616;-65
2022/06/14 10:48:42;;;;;;;;;;;;;;;;;;5109696;28;915;-65
2022/06/14 10:51:26;;;;;;;;;;;;;;;;;;5109169;28;1217;-65
2022/06/14 10:53:54;;;;;;;;;;;;;;;;;;5110287;28;1166;-65
2022/06/14 10:56:38;;;;;;;;;;;;;;;;;;5085115;28;1415;-65
2022/06/14 10:59:26;;;;;;;;;;;;;;;;;;5105316;28;1194;-65
2022/06/14 11:02:11;;;;;;;;;;;;;;;;;;5110624;28;1910;-66
2022/06/14 11:04:40;;;;;;;;;;;;;;;;;;5110865;28;1006;-64
2022/06/14 11:07:08;;;;;;;;;;;;;;;;;;5111869;28;908;-65
2022/06/14 11:09:42;;;;;;;;;;;;;;;;;;5110539;28;914;-65
2022/06/14 11:12:26;;;;;;;;;;;;;;;;;;5111261;28;1046;-65
2022/06/14 11:15:05;;;;;;;;;;;;;;;;;;5110759;28;867;-65
2022/06/14 11:17:30;;;;;;;;;;;;;;;;;;5111141;28;1210;-65
2022/06/14 11:20:01;;;;;;;;;;;;;;;;;;5116158;28;859;-65
2022/06/14 11:22:36;;;;;;;;;;;;;;;;;;5120792;28;1897;-66
2022/06/14 11:25:20;;;;;;;;;;;;;;;;;;5121622;28;883;-64
2022/06/14 11:27:51;;;;;;;;;;;;;;;;;;5120326;28;832;-65
2022/06/14 11:30:34;;;;;;;;;;;;;;;;;;5119450;28;804;-65
2022/06/14 11:32:59;;;;;;;;;;;;;;;;;;5117247;28;840;-65
2022/06/14 11:35:40;;;;;;;;;;;;;;;;;;5115841;28;1190;-64
2022/06/14 11:38:05;;;;;;;;;;;;;;;;;;5117065;28;1061;-65
2022/06/14 11:40:32;;;;;;;;;;;;;;;;;;5117620;28;935;-65
2022/06/14 11:43:11;;;;;;;;;;;;;;;;;;5117576;28;1952;-64
2022/06/14 11:45:43;;;;;;;;;;;;;;;;;;5119875;28;805;-65
2022/06/14 11:48:27;;;;;;;;;;;;;;;;;;5120725;28;959;-63
2022/06/14 11:51:22;;;;;;;;;;;;;;;;;;5119619;28;765;-65
2022/06/14 11:53:48;;;;;;;;;;;;;;;;;;5077706;28;1177;-65
2022/06/14 11:56:24;;;;;;;;;;;;;;;;;;5115667;28;914;-65
2022/06/14 11:58:53;;;;;;;;;;;;;;;;;;5112828;28;1555;-66
2022/06/14 12:01:21;;;;;;;;;;;;;;;;;;5113940;28;1229;-66
2022/06/14 12:03:46;;;;;;;;;;;;;;;;;;5115369;28;1867;-66
2022/06/14 12:06:27;;;;;;;;;;;;;;;;;;5107982;28;1230;-67
2022/06/14 12:09:11;;;;;;;;;;;;;;;;;;5093748;28;821;-66
2022/06/14 12:11:45;;;;;;;;;;;;;;;;;;5094825;28;933;-66
2022/06/14 12:14:22;;;;;;;;;;;;;;;;;;5093898;28;825;-66
2022/06/14 12:16:53;;;;;;;;;;;;;;;;;;5093059;28;852;-66
2022/06/14 12:19:33;;;;;;;;;;;;;;;;;;5093132;28;967;-66
2022/06/14 12:21:58;;;;;;;;;;;;;;;;;;5092402;28;1917;-66
2022/06/14 12:26:34;;;;;;;;;;;;;;;;;;5091852;28;1336;-67
2022/06/14 12:27:14;;;;;;;;;;;;;;;;;;5092825;28;855;-66
2022/06/14 12:29:41;;;;;;;;;;;;;;;;;;5092530;28;829;-66
2022/06/14 12:32:07;;;;;;;;;;;;;;;;;;5092484;28;853;-66
2022/06/14 12:34:46;;;;;;;;;;;;;;;;;;5091079;28;1305;-66
2022/06/14 12:37:34;;;;;;;;;;;;;;;;;;5092298;28;832;-66
2022/06/14 12:40:18;;;;;;;;;;;;;;;;;;5090798;28;1274;-66
2022/06/14 12:43:02;;;;;;;;;;;;;;;;;;5092114;28;1952;-66
2022/06/14 12:45:32;;;;;;;;;;;;;;;;;;5092668;28;774;-72
2022/06/14 12:47:58;;;;;;;;;;;;;;;;;;5092192;28;994;-72
2022/06/14 12:50:32;;;;;;;;;;;;;;;;;;5090794;28;1112;-72
2022/06/14 12:53:01;;;;;;;;;;;;;;;;;;5090469;28;880;-72
2022/06/14 12:55:29;;;;;;;;;;;;;;;;;;5092534;28;848;-72
2022/06/14 12:58:03;;;;;;;;;;;;;;;;;;5091971;28;932;-72
2022/06/14 13:00:38;;;;;;;;;;;;;;;;;;5092468;28;851;-73
2022/06/14 13:03:12;;;;;;;;;;;;;;;;;;5091522;28;1992;-72
2022/06/14 13:05:42;;;;;;;;;;;;;;;;;;5091769;28;852;-72
2022/06/14 13:08:31;;;;;;;;;;;;;;;;;;5091856;28;884;-72
2022/06/14 13:11:15;;;;;;;;;;;;;;;;;;5091128;28;1014;-72
2022/06/14 13:13:46;;;;;;;;;;;;;;;;;;5091783;28;1006;-72
2022/06/14 13:16:22;;;;;;;;;;;;;;;;;;5091674;28;825;-72
2022/06/14 13:18:53;;;;;;;;;;;;;;;;;;5091591;28;1016;-66
2022/06/14 13:21:28;;;;;;;;;;;;;;;;;;5092072;28;1053;-66
2022/06/14 13:24:11;;;;;;;;;;;;;;;;;;5091593;28;1902;-67
2022/06/14 13:26:55;;;;;;;;;;;;;;;;;;5090556;28;1084;-68
2022/06/14 13:29:33;;;;;;;;;;;;;;;;;;5092261;28;978;-66
2022/06/14 13:32:02;;;;;;;;;;;;;;;;;;5089945;28;1227;-66
2022/06/14 13:34:36;;;;;;;;;;;;;;;;;;5090192;28;1198;-66
2022/06/14 13:37:05;;;;;;;;;;;;;;;;;;5091469;28;919;-67
2022/06/14 13:39:34;;;;;;;;;;;;;;;;;;5092011;28;821;-65
2022/06/14 13:42:19;;;;;;;;;;;;;;;;;;5090700;28;1902;-66
2022/06/14 13:44:52;;;;;;;;;;;;;;;;;;5091549;28;1004;-66
2022/06/14 13:47:22;;;;;;;;;;;;;;;;;;5091579;28;1096;-66
2022/06/14 13:50:00;;;;;;;;;;;;;;;;;;5090005;28;1364;-66
2022/06/14 13:52:32;;;;;;;;;;;;;;;;;;5091955;28;853;-66
2022/06/14 13:54:57;;;;;;;;;;;;;;;;;;5091426;28;798;-66
2022/06/14 13:57:30;;;;;;;;;;;;;;;;;;5092270;28;786;-66
2022/06/14 14:00:03;;;;;;;;;;;;;;;;;;5091002;28;840;-66
2022/06/14 14:02:42;;;;;;;;;;;;;;;;;;5089675;28;1959;-66
2022/06/14 14:05:21;;;;;;;;;;;;;;;;;;5091228;28;836;-66
2022/06/14 14:07:59;;;;;;;;;;;;;;;;;;5091661;28;844;-66
2022/06/14 14:10:36;;;;;;;;;;;;;;;;;;5092110;28;1013;-67
2022/06/14 14:13:24;;;;;;;;;;;;;;;;;;5090912;28;999;-66
2022/06/14 14:16:02;;;;;;;;;;;;;;;;;;5090984;28;1504;-65
2022/06/14 14:18:43;;;;;;;;;;;;;;;;;;5090581;28;824;-66
2022/06/14 14:21:18;;;;;;;;;;;;;;;;;;5090628;28;1064;-66
2022/06/14 14:23:51;;;;;;;;;;;;;;;;;;5089222;28;1964;-66
2022/06/14 14:26:29;;;;;;;;;;;;;;;;;;5090645;28;903;-66
2022/06/14 14:29:14;;;;;;;;;;;;;;;;;;5089138;28;1210;-66
2022/06/14 14:31:42;;;;;;;;;;;;;;;;;;5073057;28;1316;-66
2022/06/14 14:34:27;;;;;;;;;;;;;;;;;;5090824;28;971;-66
2022/06/14 14:37:03;;;;;;;;;;;;;;;;;;5089779;28;1072;-66
2022/06/14 14:39:28;;;;;;;;;;;;;;;;;;5091024;28;966;-66
2022/06/14 14:41:59;;;;;;;;;;;;;;;;;;5090550;28;1968;-66
2022/06/14 14:44:33;;;;;;;;;;;;;;;;;;5091338;28;971;-66
2022/06/14 14:47:11;;;;;;;;;;;;;;;;;;5090042;28;638;-66
2022/06/14 14:49:47;;;;;;;;;;;;;;;;;;5089406;28;1124;-66
2022/06/14 14:52:20;;;;;;;;;;;;;;;;;;5091323;28;798;-66
2022/06/14 14:54:51;;;;;;;;;;;;;;;;;;5094767;28;938;-66
2022/06/14 14:57:27;;;;;;;;;;;;;;;;;;5094258;28;1073;-67
2022/06/14 15:00:01;;;;;;;;;;;;;;;;;;5094472;28;840;-66
2022/06/14 15:05:29;;;;;;;;;;;;;;;;;;5094732;28;638;-66
2022/06/14 15:08:13;;;;;;;;;;;;;;;;;;5094471;28;868;-66
2022/06/14 15:10:52;;;;;;;;;;;;;;;;;;5094622;28;1005;-66
2022/06/14 15:13:30;;;;;;;;;;;;;;;;;;5092835;28;1029;-66
2022/06/14 15:15:57;;;;;;;;;;;;;;;;;;5093935;28;907;-66
2022/06/14 15:21:16;;;;;;;;;;;;;;;;;;5094414;28;1365;-67
2022/06/14 15:23:46;;;;;;;;;;;;;;;;;;5094450;28;1886;-66
2022/06/14 15:26:16;;;;;;;;;;;;;;;;;;5094421;28;764;-66
2022/06/14 15:28:43;;;;;;;;;;;;;;;;;;5094420;28;919;-66
2022/06/14 15:31:22;;;;;;;;;;;;;;;;;;5093805;28;844;-66
2022/06/14 15:33:47;;;;;;;;;;;;;;;;;;5093141;28;1379;-66
2022/06/14 15:36:30;;;;;;;;;;;;;;;;;;5093721;28;840;-67
2022/06/14 15:39:03;;;;;;;;;;;;;;;;;;5093403;28;1265;-66
2022/06/14 15:41:30;;;;;;;;;;;;;;;;;;5094590;28;1047;-66
2022/06/14 15:44:14;;;;;;;;;;;;;;;;;;5093132;28;1883;-66
2022/06/14 15:46:47;;;;;;;;;;;;;;;;;;5094782;28;852;-66
2022/06/14 15:49:14;;;;;;;;;;;;;;;;;;5094746;28;920;-73
2022/06/14 15:51:39;;;;;;;;;;;;;;;;;;5093341;28;1337;-72
2022/06/14 15:54:06;;;;;;;;;;;;;;;;;;5094059;28;1303;-72
2022/06/14 15:56:41;;;;;;;;;;;;;;;;;;5094523;28;825;-72
2022/06/14 15:59:13;;;;;;;;;;;;;;;;;;5094604;28;1043;-72
2022/06/14 16:01:39;;;;;;;;;;;;;;;;;;5093088;28;1430;-72
2022/06/14 16:04:04;;;;;;;;;;;;;;;;;;5093646;28;1901;-72
2022/06/14 16:06:48;;;;;;;;;;;;;;;;;;5093886;28;1006;-72
2022/06/14 16:09:24;;;;;;;;;;;;;;;;;;5094058;28;1058;-72
2022/06/14 16:11:51;;;;;;;;;;;;;;;;;;5094263;28;1010;-72
2022/06/14 16:14:18;;;;;;;;;;;;;;;;;;5093904;28;963;-66
2022/06/14 16:16:59;;;;;;;;;;;;;;;;;;5093792;28;907;-65
2022/06/14 16:19:46;;;;;;;;;;;;;;;;;;5093061;28;992;-66
2022/06/14 16:22:19;;;;;;;;;;;;;;;;;;5091365;28;1890;-65
2022/06/14 16:24:46;;;;;;;;;;;;;;;;;;5092131;28;1269;-65
2022/06/14 16:27:30;;;;;;;;;;;;;;;;;;5093033;28;837;-65
2022/06/14 16:29:55;;;;;;;;;;;;;;;;;;5092920;28;1066;-65
2022/06/14 16:32:31;;;;;;;;;;;;;;;;;;5093037;28;773;-65
2022/06/14 16:35:02;;;;;;;;;;;;;;;;;;5093286;28;836;-65
2022/06/14 16:37:30;;;;;;;;;;;;;;;;;;5093155;28;927;-65
2022/06/14 16:40:02;;;;;;;;;;;;;;;;;;5091802;28;1321;-66
2022/06/14 16:42:35;;;;;;;;;;;;;;;;;;5092824;28;1893;-66
2022/06/14 16:45:05;;;;;;;;;;;;;;;;;;5093188;28;1023;-66
2022/06/14 16:47:40;;;;;;;;;;;;;;;;;;5092922;28;998;-65
2022/06/14 16:50:09;;;;;;;;;;;;;;;;;;5092654;28;832;-65
2022/06/14 16:52:53;;;;;;;;;;;;;;;;;;5091747;28;1332;-66
2022/06/14 16:55:18;;;;;;;;;;;;;;;;;;5091533;28;1286;-65
2022/06/14 16:57:44;;;;;;;;;;;;;;;;;;5092960;28;844;-66
2022/06/14 17:00:15;;;;;;;;;;;;;;;;;;5093227;28;891;-67
2022/06/14 17:03:07;;;;;;;;;;;;;;;;;;5093737;28;1938;-65
2022/06/14 17:05:48;;;;;;;;;;;;;;;;;;5092641;28;923;-65
2022/06/14 17:08:32;;;;;;;;;;;;;;;;;;5092300;28;856;-65
2022/06/14 17:11:11;;;;;;;;;;;;;;;;;;5093337;28;975;-66
2022/06/14 17:13:41;;;;;;;;;;;;;;;;;;5094512;28;880;-66
2022/06/14 17:16:14;;;;;;;;;;;;;;;;;;5096919;28;1015;-72
2022/06/14 17:18:43;;;;;;;;;;;;;;;;;;5098063;28;912;-72
2022/06/14 17:21:13;;;;;;;;;;;;;;;;;;5098261;28;1095;-73
2022/06/14 17:23:50;;;;;;;;;;;;;;;;;;5097815;28;1902;-74
2022/06/14 17:31:53;;;;;;;;;;;;;;;;;;5097384;28;700;-74
2022/06/14 17:34:25;;;;;;;;;;;;;;;;;;5096291;28;856;-66
2022/06/14 17:37:02;;;;;;;;;;;;;;;;;;5091487;28;1222;-65
2022/06/14 17:39:36;;;;;;;;;;;;;;;;;;5092909;28;885;-66
2022/06/14 17:42:05;;;;;;;;;;;;;;;;;;5090199;28;1906;-66
2022/06/14 17:44:35;;;;;;;;;;;;;;;;;;5092065;28;915;-66
2022/06/14 17:47:04;;;;;;;;;;;;;;;;;;5091608;28;999;-67
2022/06/14 17:50:03;;;;;;;;;;;;;;;;;;5091769;28;966;-67
2022/06/14 17:52:28;;;;;;;;;;;;;;;;;;5057130;28;1564;-67
2022/06/14 17:55:06;;;;;;;;;;;;;;;;;;5090293;28;1162;-67
2022/06/14 17:57:44;;;;;;;;;;;;;;;;;;5090815;28;883;-67
2022/06/14 18:00:09;;;;;;;;;;;;;;;;;;5091437;28;829;-66
2022/06/14 18:02:41;;;;;;;;;;;;;;;;;;5088981;28;1957;-66
2022/06/14 18:05:07;;;;;;;;;;;;;;;;;;5089514;28;1250;-67
2022/06/14 18:07:41;;;;;;;;;;;;;;;;;;5090725;28;872;-66
2022/06/14 18:10:19;;;;;;;;;;;;;;;;;;5084324;28;1379;-67
2022/06/14 18:12:50;;;;;;;;;;;;;;;;;;5086696;28;1656;-69
2022/06/14 18:15:33;;;;;;;;;;;;;;;;;;5081637;28;1559;-67
2022/06/14 18:17:59;;;;;;;;;;;;;;;;;;5086720;28;1876;-67